PDT,Max TemperatureF,Mean TemperatureF,Min TemperatureF,Max Dew PointF,MeanDew PointF,Min DewpointF,Max Humidity, Mean Humidity, Min Humidity, Max Sea Level PressureIn, Mean Sea Level PressureIn, Min Sea Level PressureIn, Max VisibilityMiles, Mean VisibilityMiles, Min VisibilityMiles, Max Wind SpeedMPH, Mean Wind SpeedMPH, Max Gust SpeedMPH,PrecipitationIn, CloudCover, Events, WindDirDegrees
2013-4-1,65,59,53,50,48,46,77,67,56,30.16,30.08,30.01,10,10,10,10,3,13,0.00,8,,201
2013-4-2,65,57,48,48,47,46,83,68,52,30.21,30.18,30.12,10,10,10,9,3,14,0.00,6,,261
2013-4-3,65,54,43,51,46,42,93,75,56,30.18,30.09,29.91,10,8,1,7,1,9,0.00,4,,269
2013-4-4,62,58,53,54,50,47,86,77,67,29.90,29.78,29.70,10,10,6,18,6,26,0.21,7,Rain,161
2013-4-5,60,56,51,50,48,46,89,75,60,29.95,29.91,29.83,10,10,7,18,9,25,0.18,8,Rain,205
2013-4-6,56,50,44,49,45,41,93,76,59,30.01,29.92,29.75,10,8,2,20,8,28,0.79,7,Rain,191
2013-4-7,53,49,44,47,42,38,89,74,59,29.96,29.77,29.56,10,9,3,31,12,44,0.34,8,Rain-Thunderstorm,228
2013-4-8,54,48,41,45,41,38,89,74,59,30.29,30.16,29.96,10,10,9,12,3,16,0.03,7,Rain,212
2013-4-9,57,47,37,45,40,36,100,79,57,30.37,30.32,30.25,10,4,0,6,0,8,0.00,7,Fog,66
2013-4-10,60,52,43,52,44,36,83,67,51,30.34,30.21,30.10,10,9,3,23,7,31,0.20,6,Rain,278
2013-4-11,58,48,38,41,38,35,85,68,51,30.35,30.29,30.19,10,10,10,10,2,16,T,5,,280
2013-4-12,54,45,35,46,40,33,93,76,59,30.17,29.99,29.86,10,9,2,17,3,23,0.18,5,Rain,234
2013-4-13,53,46,39,39,35,30,85,66,46,30.08,30.03,29.94,10,10,9,22,9,33,0.04,8,Rain,237
2013-4-14,52,47,41,41,38,36,89,74,59,30.09,30.01,29.93,10,8,1,16,3,23,0.32,7,Rain,222
2013-4-15,55,47,38,41,38,33,92,69,46,30.17,30.01,29.95,10,9,2,13,2,18,0.02,5,Rain,40
2013-4-16,57,48,39,42,39,36,93,70,47,30.40,30.28,30.19,10,10,10,20,4,25,T,5,,80
2013-4-17,61,47,33,40,36,30,92,64,36,30.50,30.45,30.42,10,10,10,8,3,14,T,4,Rain,322
2013-4-18,60,53,46,48,42,38,89,70,51,30.49,30.41,30.32,10,9,5,7,1,9,0.05,8,Rain,349
2013-4-19,57,54,51,52,48,45,89,80,71,30.30,30.23,30.15,10,8,3,20,6,26,0.74,8,Rain,235
2013-4-20,60,54,48,46,44,40,86,69,51,30.34,30.30,30.25,10,9,2,10,3,20,0.09,8,Rain,258
2013-4-21,55,49,42,47,43,40,83,75,66,30.31,30.28,30.25,10,10,10,8,2,12,0.04,8,Rain,267
2013-4-22,66,51,36,43,36,26,93,59,24,30.44,30.38,30.32,10,6,0,16,4,22,0.00,3,Fog,78
2013-4-23,70,53,35,39,34,30,79,51,23,30.39,30.26,30.14,10,10,10,13,3,18,0.00,0,,321
2013-4-24,76,57,38,38,35,33,79,51,23,30.26,30.14,30.00,10,10,10,16,5,22,0.00,0,,18
2013-4-25,77,59,40,45,41,38,82,56,29,30.15,30.06,30.03,10,10,10,9,3,16,0.00,0,,291
2013-4-26,79,61,42,48,42,34,92,56,19,30.25,30.20,30.16,10,10,10,8,1,12,0.00,0,,255
2013-4-27,72,58,44,46,42,37,83,56,29,30.25,30.22,30.18,10,10,10,12,4,18,0.00,2,,300
2013-4-28,68,60,51,49,45,36,83,59,34,30.25,30.20,30.08,10,9,2,16,5,22,0.03,7,Rain,254
2013-4-29,61,52,42,48,39,29,80,55,29,30.23,30.13,30.05,10,9,2,20,7,26,0.16,5,Rain,279
2013-4-30,58,51,43,36,34,30,76,57,38,30.44,30.32,30.24,10,10,10,13,5,17,T,6,Rain,259